createdAt,value
2022-12-23T00:00:45.470Z,7.61
2022-12-23T00:03:24.806Z,7.59
2022-12-23T00:05:53.155Z,7.58
2022-12-23T00:08:21.904Z,7.69
2022-12-23T00:10:50.508Z,7.87
2022-12-23T00:13:19.079Z,7.75
2022-12-23T00:15:47.994Z,7.71
2022-12-23T00:18:15.901Z,7.58
2022-12-23T00:20:43.826Z,7.63
2022-12-23T00:23:11.698Z,7.65
2022-12-23T00:25:42.551Z,7.80
2022-12-23T00:28:12.668Z,7.82
2022-12-23T00:30:48.737Z,7.62
2022-12-23T00:33:18.093Z,7.24
2022-12-23T00:35:46.377Z,7.23
2022-12-23T00:38:14.696Z,7.19
2022-12-23T00:40:44.730Z,7.11
2022-12-23T00:43:12.885Z,7.03
2022-12-23T00:45:40.553Z,6.99
2022-12-23T00:48:10.137Z,6.55
2022-12-23T00:50:39.375Z,6.48
2022-12-23T00:53:07.535Z,6.73
2022-12-23T00:55:35.009Z,6.97
2022-12-23T00:58:02.991Z,7.21
2022-12-23T01:00:30.610Z,7.30
2022-12-23T01:02:59.024Z,7.45
2022-12-23T01:05:28.262Z,7.56
2022-12-23T01:07:56.580Z,7.50
2022-12-23T01:10:24.216Z,7.43
2022-12-23T01:12:52.605Z,7.41
2022-12-23T01:15:20.091Z,7.25
2022-12-23T01:17:48.468Z,7.37
2022-12-23T01:20:16.123Z,7.40
2022-12-23T01:22:45.912Z,7.45
2022-12-23T01:25:14.021Z,7.41
2022-12-23T01:27:41.952Z,6.84
2022-12-23T01:30:10.369Z,6.33
2022-12-23T01:32:38.227Z,6.08
2022-12-23T01:35:06.473Z,6.15
2022-12-23T01:37:34.976Z,6.36
2022-12-23T01:40:04.924Z,6.67
2022-12-23T01:42:33.462Z,6.81
2022-12-23T01:45:02.295Z,6.63
2022-12-23T01:47:36.399Z,6.34
2022-12-23T01:50:08.798Z,5.80
2022-12-23T01:52:43.145Z,5.56
2022-12-23T01:55:14.077Z,5.37
2022-12-23T01:57:44.311Z,5.47
2022-12-23T02:00:18.118Z,5.69
2022-12-23T02:02:51.334Z,5.74
2022-12-23T02:05:19.323Z,5.84
2022-12-23T02:07:47.791Z,5.79
2022-12-23T02:10:16.915Z,5.92
2022-12-23T02:12:52.527Z,5.97
2022-12-23T02:15:32.233Z,6.07
2022-12-23T02:18:12.088Z,6.10
2022-12-23T02:21:14.684Z,6.04
2022-12-23T02:24:18.867Z,6.18
2022-12-23T02:30:20.158Z,6.20
2022-12-23T02:33:13.452Z,6.02
2022-12-23T02:35:47.167Z,5.99
2022-12-23T02:38:20.914Z,6.04
2022-12-23T02:40:59.234Z,6.09
2022-12-23T02:43:34.252Z,6.06
2022-12-23T02:46:07.681Z,6.08
2022-12-23T02:48:44.401Z,6.19
2022-12-23T02:51:15.002Z,6.28
2022-12-23T02:53:47.965Z,6.38
2022-12-23T02:56:18.807Z,6.47
2022-12-23T02:58:54.655Z,6.43
2022-12-23T03:01:24.695Z,6.64
2022-12-23T03:03:57.031Z,6.71
2022-12-23T03:06:29.240Z,6.71
2022-12-23T03:08:59.412Z,6.65
2022-12-23T03:11:39.326Z,6.72
2022-12-23T03:14:23.074Z,6.90
2022-12-23T03:17:00.912Z,6.82
2022-12-23T03:19:40.163Z,6.29
2022-12-23T03:22:17.420Z,6.39
2022-12-23T03:24:53.618Z,6.42
2022-12-23T03:27:27.886Z,6.50
2022-12-23T03:30:00.567Z,6.61
2022-12-23T03:32:32.421Z,6.84
2022-12-23T03:35:04.757Z,6.77
2022-12-23T03:37:36.795Z,6.94
2022-12-23T03:40:10.799Z,7.13
2022-12-23T03:42:42.801Z,7.31
2022-12-23T03:45:38.118Z,7.28
2022-12-23T03:48:10.094Z,7.39
2022-12-23T03:50:41.539Z,7.38
2022-12-23T03:53:15.404Z,7.33
2022-12-23T03:55:48.690Z,7.37
2022-12-23T03:58:25.986Z,7.37
2022-12-23T04:00:59.005Z,7.29
2022-12-23T04:03:36.672Z,7.11
2022-12-23T04:06:11.134Z,7.03
2022-12-23T04:08:42.130Z,7.10
2022-12-23T04:11:10.035Z,7.15
2022-12-23T04:13:38.256Z,7.30
2022-12-23T04:16:07.227Z,7.42
2022-12-23T04:18:35.203Z,7.56
2022-12-23T04:21:02.607Z,7.56
2022-12-23T04:23:32.007Z,7.46
2022-12-23T04:25:59.565Z,7.41
2022-12-23T04:28:27.556Z,7.28
2022-12-23T04:30:55.370Z,7.43
2022-12-23T04:33:23.295Z,7.43
2022-12-23T04:35:50.997Z,7.64
2022-12-23T04:38:19.210Z,7.95
2022-12-23T04:40:48.087Z,7.99
2022-12-23T04:43:16.122Z,7.96
2022-12-23T04:45:43.684Z,8.06
2022-12-23T04:48:11.638Z,8.10
2022-12-23T04:50:39.912Z,8.07
2022-12-23T04:53:07.715Z,7.62
2022-12-23T04:55:35.276Z,7.62
2022-12-23T04:58:04.786Z,7.69
2022-12-23T05:00:38.957Z,7.80
2022-12-23T05:03:07.829Z,7.88
2022-12-23T05:05:35.566Z,8.03
2022-12-23T05:08:05.270Z,8.08
2022-12-23T05:10:32.932Z,8.06
2022-12-23T05:13:00.891Z,8.14
2022-12-23T05:15:31.163Z,8.16
2022-12-23T05:17:59.500Z,8.26
2022-12-23T05:20:27.023Z,8.25
2022-12-23T05:22:55.588Z,8.28
2022-12-23T05:25:23.092Z,8.23
2022-12-23T05:27:51.133Z,8.33
2022-12-23T05:30:18.861Z,8.25
2022-12-23T05:32:48.620Z,8.18
2022-12-23T05:35:16.439Z,8.16
2022-12-23T05:37:44.917Z,8.21
2022-12-23T05:40:14.229Z,8.35
2022-12-23T05:42:45.249Z,8.34
2022-12-23T05:45:12.988Z,8.37
2022-12-23T05:47:40.938Z,8.31
2022-12-23T05:50:10.759Z,8.33
2022-12-23T05:52:39.044Z,8.29
2022-12-23T05:55:07.904Z,8.23
2022-12-23T05:57:35.850Z,8.27
2022-12-23T06:00:04.494Z,8.46
2022-12-23T06:02:32.543Z,8.71
2022-12-23T06:05:00.455Z,8.66
2022-12-23T06:07:30.164Z,8.57
2022-12-23T06:09:57.978Z,8.64
2022-12-23T06:12:25.976Z,8.55
2022-12-23T06:14:53.369Z,8.67
2022-12-23T06:17:21.587Z,8.61
2022-12-23T06:19:49.257Z,8.57
2022-12-23T06:22:17.687Z,8.48
2022-12-23T06:24:46.799Z,8.49
2022-12-23T06:27:15.206Z,8.46
2022-12-23T06:29:42.845Z,8.57
2022-12-23T06:32:11.198Z,8.61
2022-12-23T06:34:38.745Z,8.58
2022-12-23T06:37:06.837Z,8.62
2022-12-23T06:39:34.348Z,8.62
2022-12-23T06:42:04.039Z,8.73
2022-12-23T06:44:31.595Z,8.72
2022-12-23T06:46:59.649Z,8.75
2022-12-23T06:49:27.308Z,8.77
2022-12-23T06:51:55.417Z,8.63
2022-12-23T06:54:23.072Z,8.64
2022-12-23T06:56:50.985Z,8.65
2022-12-23T06:59:20.044Z,8.72
2022-12-23T07:01:48.200Z,8.65
2022-12-23T07:04:15.865Z,8.59
2022-12-23T07:06:43.858Z,8.45
2022-12-23T07:09:11.608Z,8.50
2022-12-23T07:11:39.615Z,8.52
2022-12-23T07:14:07.329Z,8.41
2022-12-23T07:16:36.741Z,8.56
2022-12-23T07:19:04.387Z,8.57
2022-12-23T07:21:32.341Z,8.51
2022-12-23T07:23:59.846Z,8.64
2022-12-23T07:26:27.814Z,8.62
2022-12-23T07:28:55.264Z,8.46
2022-12-23T07:31:23.486Z,8.45
2022-12-23T07:33:52.516Z,8.34
2022-12-23T07:36:20.392Z,8.57
2022-12-23T07:38:49.842Z,8.69
2022-12-23T07:41:18.016Z,8.73
2022-12-23T07:43:45.707Z,8.73
2022-12-23T07:46:13.782Z,8.79
2022-12-23T07:48:41.526Z,8.84
2022-12-23T07:51:11.022Z,8.84
2022-12-23T07:53:38.601Z,8.66
2022-12-23T07:56:07.264Z,8.62
2022-12-23T07:58:35.027Z,8.67
2022-12-23T08:01:04.835Z,8.62
2022-12-23T08:03:32.697Z,8.72
2022-12-23T08:06:02.333Z,8.88
2022-12-23T08:08:31.902Z,8.98
2022-12-23T08:11:00.772Z,8.86
2022-12-23T08:13:28.470Z,8.74
2022-12-23T08:15:57.537Z,8.75
2022-12-23T08:18:28.628Z,8.95
2022-12-23T08:20:57.508Z,8.96
2022-12-23T08:23:26.483Z,8.87
2022-12-23T08:26:03.972Z,8.93
2022-12-23T08:28:32.056Z,9.00
2022-12-23T08:31:05.627Z,8.94
2022-12-23T08:33:33.341Z,9.14
2022-12-23T08:36:03.303Z,9.15
2022-12-23T08:38:30.963Z,9.18
2022-12-23T08:40:59.122Z,9.13
2022-12-23T08:43:35.278Z,8.95
2022-12-23T08:46:04.622Z,8.89
2022-12-23T08:48:33.290Z,9.03
2022-12-23T08:51:03.647Z,9.01
2022-12-23T08:53:31.500Z,9.09
2022-12-23T08:56:02.613Z,9.28
2022-12-23T08:58:35.998Z,9.34
2022-12-23T09:01:04.427Z,9.34
2022-12-23T09:03:32.235Z,9.38
2022-12-23T09:06:08.131Z,9.50
2022-12-23T09:08:35.874Z,9.53
2022-12-23T09:11:04.810Z,9.48
2022-12-23T09:13:35.828Z,9.51
2022-12-23T09:16:05.018Z,9.46
2022-12-23T09:18:32.914Z,9.54
2022-12-23T09:21:01.833Z,9.81
2022-12-23T09:23:29.960Z,9.88
2022-12-23T09:25:58.248Z,9.87
2022-12-23T09:28:26.120Z,9.88
2022-12-23T09:30:55.585Z,9.84
2022-12-23T09:33:23.188Z,9.85
2022-12-23T09:35:50.931Z,9.94
2022-12-23T09:38:18.416Z,10.00
2022-12-23T09:40:46.285Z,9.91
2022-12-23T09:43:24.721Z,9.89
2022-12-23T09:46:03.264Z,9.92
2022-12-23T09:48:35.428Z,9.68
2022-12-23T09:51:04.187Z,9.53
2022-12-23T09:53:46.965Z,9.51
2022-12-23T09:56:20.070Z,9.49
2022-12-23T09:58:52.236Z,9.46
2022-12-23T10:01:29.967Z,9.59
2022-12-23T10:04:30.969Z,9.67
2022-12-23T10:07:23.000Z,9.73
2022-12-23T10:09:54.141Z,9.76
2022-12-23T10:12:39.848Z,9.61
2022-12-23T10:15:19.685Z,9.48
2022-12-23T10:17:52.781Z,9.37
2022-12-23T10:20:30.221Z,9.45
2022-12-23T10:22:59.579Z,9.57
2022-12-23T10:25:32.651Z,9.51
2022-12-23T10:28:00.686Z,9.60
2022-12-23T10:31:05.375Z,9.78
2022-12-23T10:33:25.356Z,9.77
2022-12-23T10:36:04.105Z,9.75
2022-12-23T10:38:44.468Z,9.76
2022-12-23T10:41:22.933Z,9.80
2022-12-23T10:44:18.740Z,9.87
2022-12-23T10:46:55.863Z,9.81
2022-12-23T10:49:34.475Z,9.70
2022-12-23T10:52:05.825Z,9.79
2022-12-23T10:54:35.660Z,9.82
2022-12-23T10:57:05.350Z,9.90
2022-12-23T10:59:35.653Z,9.86
2022-12-23T11:02:16.774Z,10.07
2022-12-23T11:04:48.262Z,10.13
2022-12-23T11:10:17.070Z,9.99
2022-12-23T11:12:47.001Z,10.01
2022-12-23T11:15:29.923Z,9.96
2022-12-23T11:18:03.956Z,10.04
2022-12-23T11:20:34.173Z,10.09
2022-12-23T11:23:04.510Z,9.96
2022-12-23T11:25:35.890Z,10.10
2022-12-23T11:28:11.399Z,10.32
2022-12-23T11:30:56.287Z,10.27
2022-12-23T11:33:27.265Z,10.05
2022-12-23T11:36:14.163Z,10.04
2022-12-23T11:38:50.329Z,10.14
2022-12-23T11:41:20.981Z,10.27
2022-12-23T11:43:56.527Z,10.30
2022-12-23T11:46:26.883Z,10.38
2022-12-23T11:49:14.021Z,10.58
2022-12-23T11:51:44.053Z,10.77
2022-12-23T11:54:17.132Z,10.72
2022-12-23T11:56:48.032Z,10.78
2022-12-23T11:59:29.639Z,10.98
2022-12-23T12:02:00.203Z,10.74
2022-12-23T12:04:31.131Z,10.83
2022-12-23T12:07:01.882Z,10.94
2022-12-23T12:09:31.376Z,10.85
2022-12-23T12:12:04.657Z,10.75
2022-12-23T12:14:36.721Z,10.88
2022-12-23T12:17:18.098Z,10.77
2022-12-23T12:19:59.265Z,10.75
2022-12-23T12:22:36.241Z,10.56
2022-12-23T12:25:15.595Z,10.62
2022-12-23T12:27:47.848Z,10.58
2022-12-23T12:30:18.925Z,10.63
2022-12-23T12:32:56.929Z,10.66
2022-12-23T12:35:36.028Z,10.58
2022-12-23T12:38:16.249Z,10.50
2022-12-23T12:40:49.559Z,10.52
2022-12-23T12:43:27.111Z,10.57
2022-12-23T12:46:06.605Z,10.64
2022-12-23T12:48:45.727Z,10.70
2022-12-23T12:51:21.320Z,10.84
2022-12-23T12:54:05.153Z,10.92
2022-12-23T12:56:39.554Z,10.78
2022-12-23T12:59:13.862Z,10.80
2022-12-23T13:02:01.022Z,10.75
2022-12-23T13:04:43.814Z,10.76
2022-12-23T13:07:22.758Z,10.67
2022-12-23T13:09:58.857Z,10.63
2022-12-23T13:12:39.325Z,10.58
2022-12-23T13:15:19.005Z,10.56
2022-12-23T13:17:58.833Z,10.60
2022-12-23T13:20:35.693Z,10.67
2022-12-23T13:23:41.517Z,10.58
2022-12-23T13:26:11.629Z,10.64
2022-12-23T13:28:45.671Z,10.64
2022-12-23T13:31:23.925Z,10.70
2022-12-23T13:33:59.855Z,10.66
2022-12-23T13:36:42.523Z,10.58
2022-12-23T13:39:28.948Z,10.58
2022-12-23T13:42:05.650Z,10.64
2022-12-23T13:44:35.621Z,10.70
2022-12-23T13:47:12.466Z,10.74
2022-12-23T13:49:52.806Z,10.84
2022-12-23T13:52:33.862Z,10.89
2022-12-23T13:57:55.988Z,10.90
2022-12-23T14:00:27.001Z,10.91
2022-12-23T14:03:16.984Z,10.74
2022-12-23T14:05:46.002Z,10.72
2022-12-23T14:08:40.765Z,10.73
2022-12-23T14:11:15.968Z,10.64
2022-12-23T14:13:53.530Z,10.64
2022-12-23T14:16:41.924Z,10.59
2022-12-23T14:19:34.455Z,10.64
2022-12-23T14:22:21.774Z,10.71
2022-12-23T14:25:26.026Z,10.64
2022-12-23T14:27:58.547Z,10.58
2022-12-23T14:30:34.344Z,10.59
2022-12-23T14:33:04.071Z,10.72
2022-12-23T14:35:54.253Z,10.72
2022-12-23T14:38:25.034Z,10.57
2022-12-23T14:41:15.241Z,10.58
2022-12-23T14:43:54.866Z,10.68
2022-12-23T14:46:53.568Z,10.74
2022-12-23T14:49:39.010Z,10.66
2022-12-23T14:52:50.236Z,10.56
2022-12-23T14:55:53.679Z,10.73
2022-12-23T14:58:59.595Z,10.57
2022-12-23T15:01:33.894Z,10.44
2022-12-23T15:04:08.349Z,10.20
2022-12-23T15:06:39.564Z,10.17
2022-12-23T15:09:10.113Z,10.20
2022-12-23T15:11:40.486Z,10.32
2022-12-23T15:14:22.129Z,10.35
2022-12-23T15:16:51.134Z,10.36
2022-12-23T15:19:22.664Z,10.48
2022-12-23T15:21:59.250Z,10.44
2022-12-23T15:24:28.331Z,10.43
2022-12-23T15:27:25.182Z,10.55
2022-12-23T15:29:47.926Z,10.55
2022-12-23T15:32:18.485Z,10.74
2022-12-23T15:34:48.662Z,10.91
2022-12-23T15:37:19.466Z,10.94
2022-12-23T15:39:48.256Z,11.02
2022-12-23T15:42:22.262Z,11.09
2022-12-23T15:44:50.342Z,10.93
2022-12-23T15:47:38.642Z,10.74
2022-12-23T15:50:13.384Z,10.56
2022-12-23T15:52:43.337Z,10.70
2022-12-23T15:55:14.385Z,10.58
2022-12-23T15:57:49.698Z,10.34
2022-12-23T16:00:19.965Z,10.36
2022-12-23T16:03:11.879Z,10.32
2022-12-23T16:05:39.402Z,10.36
2022-12-23T16:08:28.202Z,10.35
2022-12-23T16:11:05.399Z,10.05
2022-12-23T16:13:33.345Z,10.23
2022-12-23T16:16:32.222Z,10.37
2022-12-23T16:19:01.584Z,10.54
2022-12-23T16:21:32.759Z,10.47
2022-12-23T16:24:00.998Z,10.48
2022-12-23T16:26:29.368Z,10.22
2022-12-23T16:29:00.865Z,10.05
2022-12-23T16:31:29.028Z,10.01
2022-12-23T16:33:58.417Z,10.02
2022-12-23T16:36:36.149Z,10.13
2022-12-23T16:39:17.837Z,10.22
2022-12-23T16:41:45.918Z,10.32
2022-12-23T16:44:13.676Z,10.42
2022-12-23T16:46:44.516Z,10.47
2022-12-23T16:49:15.714Z,10.61
2022-12-23T16:51:45.912Z,10.71
2022-12-23T16:54:15.486Z,10.82
2022-12-23T16:56:44.249Z,10.89
2022-12-23T16:59:11.808Z,11.03
2022-12-23T17:01:43.533Z,11.05
2022-12-23T17:04:11.305Z,11.00
2022-12-23T17:06:40.664Z,11.07
2022-12-23T17:09:11.870Z,10.83
2022-12-23T17:11:43.492Z,10.46
2022-12-23T17:14:16.503Z,10.04
2022-12-23T17:16:45.122Z,9.73
2022-12-23T17:19:13.415Z,9.68
2022-12-23T17:21:43.626Z,9.79
2022-12-23T17:24:19.240Z,9.88
2022-12-23T17:26:47.239Z,10.01
2022-12-23T17:29:14.833Z,9.96
2022-12-23T17:31:44.341Z,10.15
2022-12-23T17:34:15.863Z,10.09
2022-12-23T17:36:49.523Z,10.01
2022-12-23T17:39:19.365Z,9.92
2022-12-23T17:41:48.110Z,10.08
2022-12-23T17:44:17.040Z,10.24
2022-12-23T17:46:45.631Z,10.19
2022-12-23T17:49:13.418Z,10.03
2022-12-23T17:51:42.518Z,9.95
2022-12-23T17:54:21.116Z,10.04
2022-12-23T17:56:49.326Z,10.11
2022-12-23T17:59:19.758Z,9.91
2022-12-23T18:01:50.851Z,10.01
2022-12-23T18:04:18.660Z,10.10
2022-12-23T18:06:46.760Z,10.21
2022-12-23T18:09:14.355Z,10.16
2022-12-23T18:11:45.065Z,10.09
2022-12-23T18:14:21.256Z,10.02
2022-12-23T18:16:52.275Z,10.01
2022-12-23T18:19:21.575Z,9.80
2022-12-23T18:21:52.190Z,9.71
2022-12-23T18:24:20.227Z,9.94
2022-12-23T18:26:49.791Z,9.92
2022-12-23T18:29:17.426Z,9.98
2022-12-23T18:31:52.155Z,10.15
2022-12-23T18:34:20.670Z,10.27
2022-12-23T18:36:49.100Z,10.14
2022-12-23T18:39:16.691Z,10.03
2022-12-23T18:41:44.701Z,10.01
2022-12-23T18:44:18.425Z,9.76
2022-12-23T18:46:46.382Z,9.82
2022-12-23T18:49:13.956Z,9.92
2022-12-23T18:51:41.820Z,9.71
2022-12-23T18:54:13.065Z,9.92
2022-12-23T18:56:41.041Z,9.94
2022-12-23T18:59:15.978Z,9.83
2022-12-23T19:01:44.489Z,9.93
2022-12-23T19:04:12.181Z,9.86
2022-12-23T19:06:40.828Z,9.85
2022-12-23T19:09:08.389Z,9.98
2022-12-23T19:11:36.474Z,9.88
2022-12-23T19:14:04.047Z,9.37
2022-12-23T19:16:33.597Z,9.24
2022-12-23T19:19:01.143Z,8.90
2022-12-23T19:21:29.091Z,8.58
2022-12-23T19:23:56.732Z,8.55
2022-12-23T19:26:24.732Z,8.43
2022-12-23T19:28:52.295Z,8.64
2022-12-23T19:31:20.433Z,8.60
2022-12-23T19:33:49.509Z,8.52
2022-12-23T19:36:20.476Z,8.10
2022-12-23T19:38:47.969Z,7.94
2022-12-23T19:41:16.063Z,7.94
2022-12-23T19:43:45.428Z,8.24
2022-12-23T19:46:14.826Z,8.62
2022-12-23T19:48:42.887Z,8.79
2022-12-23T19:51:14.471Z,8.87
2022-12-23T19:53:42.794Z,9.08
2022-12-23T19:56:12.437Z,9.19
2022-12-23T19:58:42.936Z,9.20
2022-12-23T20:01:17.903Z,8.95
2022-12-23T20:03:47.088Z,8.27
2022-12-23T20:06:19.095Z,8.21
2022-12-23T20:08:46.721Z,8.08
2022-12-23T20:11:17.503Z,8.02
2022-12-23T20:13:46.003Z,8.13
2022-12-23T20:16:14.065Z,8.28
2022-12-23T20:18:41.700Z,8.53
2022-12-23T20:21:10.051Z,8.67
2022-12-23T20:23:39.012Z,8.71
2022-12-23T20:26:07.309Z,8.57
2022-12-23T20:28:34.751Z,8.52
2022-12-23T20:31:07.555Z,8.42
2022-12-23T20:33:35.259Z,8.49
2022-12-23T20:36:03.496Z,8.65
2022-12-23T20:38:31.172Z,8.79
2022-12-23T20:41:00.813Z,8.79
2022-12-23T20:43:28.430Z,8.59
2022-12-23T20:45:56.571Z,8.54
2022-12-23T20:48:26.901Z,8.62
2022-12-23T20:51:04.199Z,8.69
2022-12-23T20:53:32.218Z,8.88
2022-12-23T20:56:02.599Z,8.98
2022-12-23T20:58:30.290Z,8.86
2022-12-23T21:01:08.153Z,8.72
2022-12-23T21:03:35.979Z,8.23
2022-12-23T21:06:04.685Z,8.07
2022-12-23T21:08:32.669Z,7.86
2022-12-23T21:11:03.503Z,8.08
2022-12-23T21:13:31.214Z,8.19
2022-12-23T21:16:03.161Z,8.28
2022-12-23T21:18:30.907Z,8.33
2022-12-23T21:21:00.439Z,8.52
2022-12-23T21:23:28.812Z,8.69
2022-12-23T21:26:09.774Z,8.50
2022-12-23T21:28:38.264Z,8.69
2022-12-23T21:31:07.050Z,8.78
2022-12-23T21:33:36.764Z,8.98
2022-12-23T21:36:06.023Z,9.04
2022-12-23T21:38:34.996Z,9.03
2022-12-23T21:41:06.626Z,9.05
2022-12-23T21:43:36.082Z,9.10
2022-12-23T21:46:06.789Z,9.07
2022-12-23T21:48:36.191Z,8.89
2022-12-23T21:51:06.109Z,8.63
2022-12-23T21:53:34.353Z,8.53
2022-12-23T21:56:03.563Z,8.39
2022-12-23T21:58:31.612Z,8.35
2022-12-23T22:01:05.699Z,8.21
2022-12-23T22:03:33.515Z,8.33
2022-12-23T22:06:09.923Z,8.34
2022-12-23T22:08:38.726Z,8.36
2022-12-23T22:11:07.568Z,8.25
2022-12-23T22:13:35.085Z,8.34
2022-12-23T22:16:08.870Z,8.29
2022-12-23T22:18:37.192Z,8.26
2022-12-23T22:21:05.672Z,8.29
2022-12-23T22:23:33.331Z,8.36
2022-12-23T22:26:01.330Z,8.31
2022-12-23T22:28:31.400Z,8.23
2022-12-23T22:31:02.822Z,8.32
2022-12-23T22:33:32.191Z,8.35
2022-12-23T22:36:00.927Z,8.56
2022-12-23T22:38:28.586Z,8.69
2022-12-23T22:40:56.716Z,8.83
2022-12-23T22:43:24.316Z,8.74
2022-12-23T22:45:56.698Z,8.76
2022-12-23T22:48:24.768Z,8.70
2022-12-23T22:51:02.160Z,8.62
2022-12-23T22:53:30.169Z,8.63
2022-12-23T22:55:59.002Z,8.71
2022-12-23T22:58:28.006Z,8.84
2022-12-23T23:00:56.085Z,8.97
2022-12-23T23:03:23.907Z,9.14
2022-12-23T23:06:05.527Z,9.21
2022-12-23T23:08:33.888Z,9.05
2022-12-23T23:11:03.816Z,9.02
2022-12-23T23:13:34.175Z,9.04
2022-12-23T23:16:02.889Z,8.98
2022-12-23T23:18:30.957Z,8.87
2022-12-23T23:20:58.941Z,8.84
2022-12-23T23:23:27.907Z,8.74
2022-12-23T23:25:55.991Z,8.91
2022-12-23T23:28:23.533Z,9.01
2022-12-23T23:31:09.767Z,9.03
2022-12-23T23:33:39.328Z,9.23
2022-12-23T23:36:08.313Z,9.27
2022-12-23T23:38:37.366Z,9.38
2022-12-23T23:41:05.936Z,9.47
2022-12-23T23:43:33.469Z,9.37
2022-12-23T23:46:01.430Z,9.44
2022-12-23T23:48:29.117Z,9.46
2022-12-23T23:51:04.057Z,9.48
2022-12-23T23:53:31.572Z,9.20
2022-12-23T23:56:06.690Z,9.01
2022-12-23T23:58:34.893Z,8.62
